sensor_id;sensor_type;location;lat;lon;timestamp;P1;durP1;ratioP1;P2;durP2;ratioP2
21743;SDS011;11034;48.556;9.342;2022-08-20T00:02:11;6.38;;;5.60;;
21743;SDS011;11034;48.556;9.342;2022-08-20T00:04:40;6.97;;;6.22;;
21743;SDS011;11034;48.556;9.342;2022-08-20T00:07:10;8.38;;;6.40;;
21743;SDS011;11034;48.556;9.342;2022-08-20T00:09:39;6.22;;;5.47;;
21743;SDS011;11034;48.556;9.342;2022-08-20T00:12:08;6.05;;;5.28;;
21743;SDS011;11034;48.556;9.342;2022-08-20T00:14:39;6.72;;;5.22;;
21743;SDS011;11034;48.556;9.342;2022-08-20T00:17:07;6.32;;;5.72;;
21743;SDS011;11034;48.556;9.342;2022-08-20T00:19:35;6.90;;;5.47;;
21743;SDS011;11034;48.556;9.342;2022-08-20T00:22:03;5.85;;;5.22;;
21743;SDS011;11034;48.556;9.342;2022-08-20T00:24:31;7.20;;;5.60;;
21743;SDS011;11034;48.556;9.342;2022-08-20T00:27:00;5.78;;;5.28;;
21743;SDS011;11034;48.556;9.342;2022-08-20T00:29:28;7.55;;;5.05;;
21743;SDS011;11034;48.556;9.342;2022-08-20T00:31:58;6.80;;;5.30;;
21743;SDS011;11034;48.556;9.342;2022-08-20T00:34:26;6.70;;;5.40;;
21743;SDS011;11034;48.556;9.342;2022-08-20T00:36:55;6.30;;;5.05;;
21743;SDS011;11034;48.556;9.342;2022-08-20T00:39:23;7.10;;;5.10;;
21743;SDS011;11034;48.556;9.342;2022-08-20T00:41:56;6.82;;;5.15;;
21743;SDS011;11034;48.556;9.342;2022-08-20T00:44:24;5.97;;;5.28;;
21743;SDS011;11034;48.556;9.342;2022-08-20T00:46:53;5.63;;;5.10;;
21743;SDS011;11034;48.556;9.342;2022-08-20T00:49:23;5.13;;;4.43;;
21743;SDS011;11034;48.556;9.342;2022-08-20T00:51:54;6.55;;;5.13;;
21743;SDS011;11034;48.556;9.342;2022-08-20T00:54:26;6.72;;;4.50;;
21743;SDS011;11034;48.556;9.342;2022-08-20T00:56:58;6.80;;;4.88;;
21743;SDS011;11034;48.556;9.342;2022-08-20T00:59:29;4.53;;;4.13;;
21743;SDS011;11034;48.556;9.342;2022-08-20T01:01:59;5.10;;;3.83;;
21743;SDS011;11034;48.556;9.342;2022-08-20T01:04:30;4.25;;;3.85;;
21743;SDS011;11034;48.556;9.342;2022-08-20T01:07:00;5.88;;;4.00;;
21743;SDS011;11034;48.556;9.342;2022-08-20T01:09:30;4.20;;;3.80;;
21743;SDS011;11034;48.556;9.342;2022-08-20T01:12:19;4.82;;;3.58;;
21743;SDS011;11034;48.556;9.342;2022-08-20T01:14:49;6.57;;;3.85;;
21743;SDS011;11034;48.556;9.342;2022-08-20T01:17:19;4.20;;;3.75;;
21743;SDS011;11034;48.556;9.342;2022-08-20T01:19:54;3.80;;;3.42;;
21743;SDS011;11034;48.556;9.342;2022-08-20T01:22:27;4.45;;;3.33;;
21743;SDS011;11034;48.556;9.342;2022-08-20T01:25:19;5.32;;;3.13;;
21743;SDS011;11034;48.556;9.342;2022-08-20T01:27:55;6.80;;;3.63;;
21743;SDS011;11034;48.556;9.342;2022-08-20T01:30:25;7.35;;;3.47;;
21743;SDS011;11034;48.556;9.342;2022-08-20T01:32:55;4.65;;;3.40;;
21743;SDS011;11034;48.556;9.342;2022-08-20T01:35:23;3.70;;;3.38;;
21743;SDS011;11034;48.556;9.342;2022-08-20T01:37:51;6.40;;;3.30;;
21743;SDS011;11034;48.556;9.342;2022-08-20T01:40:23;3.92;;;3.20;;
21743;SDS011;11034;48.556;9.342;2022-08-20T01:43:03;3.85;;;3.22;;
21743;SDS011;11034;48.556;9.342;2022-08-20T01:45:31;4.35;;;3.00;;
21743;SDS011;11034;48.556;9.342;2022-08-20T01:48:03;5.10;;;3.65;;
21743;SDS011;11034;48.556;9.342;2022-08-20T01:50:31;6.03;;;3.67;;
21743;SDS011;11034;48.556;9.342;2022-08-20T01:53:08;4.10;;;3.67;;
21743;SDS011;11034;48.556;9.342;2022-08-20T01:55:43;4.65;;;3.25;;
21743;SDS011;11034;48.556;9.342;2022-08-20T01:58:13;5.65;;;3.67;;
21743;SDS011;11034;48.556;9.342;2022-08-20T02:00:41;3.95;;;3.08;;
21743;SDS011;11034;48.556;9.342;2022-08-20T02:03:09;4.47;;;3.10;;
21743;SDS011;11034;48.556;9.342;2022-08-20T02:05:37;3.90;;;3.50;;
21743;SDS011;11034;48.556;9.342;2022-08-20T02:08:05;4.18;;;3.58;;
21743;SDS011;11034;48.556;9.342;2022-08-20T02:10:33;3.88;;;3.40;;
21743;SDS011;11034;48.556;9.342;2022-08-20T02:13:02;4.68;;;3.70;;
21743;SDS011;11034;48.556;9.342;2022-08-20T02:15:34;4.95;;;3.25;;
21743;SDS011;11034;48.556;9.342;2022-08-20T02:18:09;4.75;;;3.80;;
21743;SDS011;11034;48.556;9.342;2022-08-20T02:20:40;4.07;;;3.67;;
21743;SDS011;11034;48.556;9.342;2022-08-20T02:23:10;5.40;;;3.65;;
21743;SDS011;11034;48.556;9.342;2022-08-20T02:25:40;3.55;;;3.25;;
21743;SDS011;11034;48.556;9.342;2022-08-20T02:28:11;4.20;;;3.70;;
21743;SDS011;11034;48.556;9.342;2022-08-20T02:30:44;3.85;;;3.45;;
21743;SDS011;11034;48.556;9.342;2022-08-20T02:33:15;7.22;;;4.00;;
21743;SDS011;11034;48.556;9.342;2022-08-20T02:35:49;4.60;;;3.60;;
21743;SDS011;11034;48.556;9.342;2022-08-20T02:38:21;4.03;;;3.63;;
21743;SDS011;11034;48.556;9.342;2022-08-20T02:40:49;4.85;;;3.80;;
21743;SDS011;11034;48.556;9.342;2022-08-20T02:43:17;4.35;;;3.53;;
21743;SDS011;11034;48.556;9.342;2022-08-20T02:45:48;4.78;;;3.88;;
21743;SDS011;11034;48.556;9.342;2022-08-20T02:48:17;4.47;;;4.05;;
21743;SDS011;11034;48.556;9.342;2022-08-20T02:50:49;6.65;;;4.00;;
21743;SDS011;11034;48.556;9.342;2022-08-20T02:53:18;4.20;;;3.80;;
21743;SDS011;11034;48.556;9.342;2022-08-20T02:55:47;4.30;;;3.90;;
21743;SDS011;11034;48.556;9.342;2022-08-20T02:58:16;4.20;;;3.80;;
21743;SDS011;11034;48.556;9.342;2022-08-20T03:00:44;5.18;;;3.90;;
21743;SDS011;11034;48.556;9.342;2022-08-20T03:03:14;5.25;;;3.67;;
21743;SDS011;11034;48.556;9.342;2022-08-20T03:05:45;4.65;;;3.75;;
21743;SDS011;11034;48.556;9.342;2022-08-20T03:08:13;5.20;;;3.65;;
21743;SDS011;11034;48.556;9.342;2022-08-20T03:10:42;4.20;;;3.67;;
21743;SDS011;11034;48.556;9.342;2022-08-20T03:13:12;6.07;;;3.80;;
21743;SDS011;11034;48.556;9.342;2022-08-20T03:15:43;4.32;;;3.85;;
21743;SDS011;11034;48.556;9.342;2022-08-20T03:18:14;6.10;;;4.05;;
21743;SDS011;11034;48.556;9.342;2022-08-20T03:20:43;8.00;;;4.53;;
21743;SDS011;11034;48.556;9.342;2022-08-20T03:23:17;5.50;;;4.53;;
21743;SDS011;11034;48.556;9.342;2022-08-20T03:25:47;5.53;;;4.22;;
21743;SDS011;11034;48.556;9.342;2022-08-20T03:28:15;8.48;;;4.35;;
21743;SDS011;11034;48.556;9.342;2022-08-20T03:30:44;4.70;;;4.28;;
21743;SDS011;11034;48.556;9.342;2022-08-20T03:33:14;4.90;;;4.40;;
21743;SDS011;11034;48.556;9.342;2022-08-20T03:35:42;5.47;;;4.30;;
21743;SDS011;11034;48.556;9.342;2022-08-20T03:38:11;4.90;;;4.03;;
21743;SDS011;11034;48.556;9.342;2022-08-20T03:40:40;5.70;;;4.72;;
21743;SDS011;11034;48.556;9.342;2022-08-20T03:43:08;7.30;;;4.85;;
21743;SDS011;11034;48.556;9.342;2022-08-20T03:45:37;5.20;;;4.70;;
21743;SDS011;11034;48.556;9.342;2022-08-20T03:48:07;7.45;;;4.53;;
21743;SDS011;11034;48.556;9.342;2022-08-20T03:50:38;5.22;;;4.72;;
21743;SDS011;11034;48.556;9.342;2022-08-20T03:53:08;5.88;;;4.55;;
21743;SDS011;11034;48.556;9.342;2022-08-20T03:55:40;5.18;;;4.63;;
21743;SDS011;11034;48.556;9.342;2022-08-20T03:58:19;6.40;;;4.75;;
21743;SDS011;11034;48.556;9.342;2022-08-20T04:00:59;5.78;;;5.00;;
21743;SDS011;11034;48.556;9.342;2022-08-20T04:03:28;5.50;;;5.00;;
21743;SDS011;11034;48.556;9.342;2022-08-20T04:05:57;6.97;;;5.30;;
21743;SDS011;11034;48.556;9.342;2022-08-20T04:08:26;6.18;;;5.05;;
21743;SDS011;11034;48.556;9.342;2022-08-20T04:10:56;6.35;;;5.18;;
21743;SDS011;11034;48.556;9.342;2022-08-20T04:13:25;7.18;;;5.20;;
21743;SDS011;11034;48.556;9.342;2022-08-20T04:15:57;7.07;;;4.97;;
21743;SDS011;11034;48.556;9.342;2022-08-20T04:18:28;6.18;;;5.22;;
21743;SDS011;11034;48.556;9.342;2022-08-20T04:20:58;5.32;;;4.82;;
21743;SDS011;11034;48.556;9.342;2022-08-20T04:23:26;7.35;;;5.47;;
21743;SDS011;11034;48.556;9.342;2022-08-20T04:25:54;6.55;;;5.03;;
21743;SDS011;11034;48.556;9.342;2022-08-20T04:28:23;8.75;;;5.05;;
21743;SDS011;11034;48.556;9.342;2022-08-20T04:30:54;6.70;;;5.00;;
21743;SDS011;11034;48.556;9.342;2022-08-20T04:33:23;5.65;;;5.03;;
21743;SDS011;11034;48.556;9.342;2022-08-20T04:36:00;7.20;;;4.80;;
21743;SDS011;11034;48.556;9.342;2022-08-20T04:38:31;5.70;;;5.13;;
21743;SDS011;11034;48.556;9.342;2022-08-20T04:41:15;7.88;;;5.10;;
21743;SDS011;11034;48.556;9.342;2022-08-20T04:43:49;11.95;;;5.72;;
21743;SDS011;11034;48.556;9.342;2022-08-20T04:46:19;6.15;;;5.55;;
21743;SDS011;11034;48.556;9.342;2022-08-20T04:48:50;6.18;;;5.38;;
21743;SDS011;11034;48.556;9.342;2022-08-20T04:51:20;7.85;;;4.97;;
21743;SDS011;11034;48.556;9.342;2022-08-20T04:53:50;7.70;;;5.93;;
21743;SDS011;11034;48.556;9.342;2022-08-20T04:56:19;5.95;;;5.43;;
21743;SDS011;11034;48.556;9.342;2022-08-20T04:58:50;5.57;;;5.07;;
21743;SDS011;11034;48.556;9.342;2022-08-20T05:01:19;6.30;;;5.57;;
21743;SDS011;11034;48.556;9.342;2022-08-20T05:03:49;8.02;;;5.57;;
21743;SDS011;11034;48.556;9.342;2022-08-20T05:06:22;6.15;;;5.53;;
21743;SDS011;11034;48.556;9.342;2022-08-20T05:08:52;6.47;;;5.60;;
21743;SDS011;11034;48.556;9.342;2022-08-20T05:11:21;7.15;;;6.05;;
21743;SDS011;11034;48.556;9.342;2022-08-20T05:14:00;8.05;;;5.65;;
21743;SDS011;11034;48.556;9.342;2022-08-20T05:16:28;6.72;;;5.63;;
21743;SDS011;11034;48.556;9.342;2022-08-20T05:18:58;8.52;;;5.45;;
21743;SDS011;11034;48.556;9.342;2022-08-20T05:21:27;6.03;;;5.43;;
21743;SDS011;11034;48.556;9.342;2022-08-20T05:23:55;9.43;;;6.18;;
21743;SDS011;11034;48.556;9.342;2022-08-20T05:26:23;6.55;;;5.47;;
21743;SDS011;11034;48.556;9.342;2022-08-20T05:28:51;7.38;;;5.90;;
21743;SDS011;11034;48.556;9.342;2022-08-20T05:31:24;6.22;;;5.63;;
21743;SDS011;11034;48.556;9.342;2022-08-20T05:33:58;6.82;;;5.75;;
21743;SDS011;11034;48.556;9.342;2022-08-20T05:36:28;7.65;;;5.97;;
21743;SDS011;11034;48.556;9.342;2022-08-20T05:38:56;6.18;;;5.57;;
21743;SDS011;11034;48.556;9.342;2022-08-20T05:41:24;5.68;;;5.18;;
21743;SDS011;11034;48.556;9.342;2022-08-20T05:43:55;8.50;;;6.03;;
21743;SDS011;11034;48.556;9.342;2022-08-20T05:46:25;6.25;;;5.65;;
21743;SDS011;11034;48.556;9.342;2022-08-20T05:48:53;8.25;;;5.72;;
21743;SDS011;11034;48.556;9.342;2022-08-20T05:51:24;7.57;;;5.53;;
21743;SDS011;11034;48.556;9.342;2022-08-20T05:53:54;6.63;;;5.80;;
21743;SDS011;11034;48.556;9.342;2022-08-20T05:56:25;7.70;;;5.82;;
21743;SDS011;11034;48.556;9.342;2022-08-20T05:58:55;6.90;;;5.90;;
21743;SDS011;11034;48.556;9.342;2022-08-20T06:01:25;7.90;;;6.25;;
21743;SDS011;11034;48.556;9.342;2022-08-20T06:03:54;6.88;;;5.75;;
21743;SDS011;11034;48.556;9.342;2022-08-20T06:06:40;5.68;;;5.18;;
21743;SDS011;11034;48.556;9.342;2022-08-20T06:09:13;6.47;;;5.57;;
21743;SDS011;11034;48.556;9.342;2022-08-20T06:11:58;7.50;;;5.43;;
21743;SDS011;11034;48.556;9.342;2022-08-20T06:14:27;5.82;;;5.30;;
21743;SDS011;11034;48.556;9.342;2022-08-20T06:17:00;6.85;;;6.13;;
21743;SDS011;11034;48.556;9.342;2022-08-20T06:19:32;5.78;;;5.18;;
21743;SDS011;11034;48.556;9.342;2022-08-20T06:22:02;8.18;;;5.88;;
21743;SDS011;11034;48.556;9.342;2022-08-20T06:24:48;7.68;;;5.50;;
21743;SDS011;11034;48.556;9.342;2022-08-20T06:27:17;6.72;;;6.07;;
21743;SDS011;11034;48.556;9.342;2022-08-20T06:29:45;6.70;;;5.57;;
21743;SDS011;11034;48.556;9.342;2022-08-20T06:32:14;8.07;;;5.50;;
21743;SDS011;11034;48.556;9.342;2022-08-20T06:34:42;7.90;;;5.78;;
21743;SDS011;11034;48.556;9.342;2022-08-20T06:37:16;8.07;;;5.55;;
21743;SDS011;11034;48.556;9.342;2022-08-20T06:39:47;6.57;;;5.90;;
21743;SDS011;11034;48.556;9.342;2022-08-20T06:42:17;6.85;;;5.70;;
21743;SDS011;11034;48.556;9.342;2022-08-20T06:44:46;6.63;;;5.20;;
21743;SDS011;11034;48.556;9.342;2022-08-20T06:47:15;7.72;;;5.57;;
21743;SDS011;11034;48.556;9.342;2022-08-20T06:49:45;6.80;;;5.47;;
21743;SDS011;11034;48.556;9.342;2022-08-20T06:52:14;7.78;;;5.30;;
21743;SDS011;11034;48.556;9.342;2022-08-20T06:54:43;8.73;;;6.03;;
21743;SDS011;11034;48.556;9.342;2022-08-20T06:57:13;7.22;;;5.15;;
21743;SDS011;11034;48.556;9.342;2022-08-20T06:59:42;5.75;;;5.15;;
21743;SDS011;11034;48.556;9.342;2022-08-20T07:02:19;6.72;;;5.93;;
21743;SDS011;11034;48.556;9.342;2022-08-20T07:04:55;8.23;;;5.40;;
21743;SDS011;11034;48.556;9.342;2022-08-20T07:07:24;6.53;;;5.47;;
21743;SDS011;11034;48.556;9.342;2022-08-20T07:09:57;7.63;;;5.50;;
21743;SDS011;11034;48.556;9.342;2022-08-20T07:12:27;5.95;;;5.18;;
21743;SDS011;11034;48.556;9.342;2022-08-20T07:14:55;7.40;;;5.38;;
21743;SDS011;11034;48.556;9.342;2022-08-20T07:17:23;7.65;;;5.07;;
21743;SDS011;11034;48.556;9.342;2022-08-20T07:19:51;6.95;;;5.82;;
21743;SDS011;11034;48.556;9.342;2022-08-20T07:22:19;6.47;;;5.20;;
21743;SDS011;11034;48.556;9.342;2022-08-20T07:24:48;5.90;;;5.28;;
21743;SDS011;11034;48.556;9.342;2022-08-20T07:27:18;6.55;;;5.57;;
21743;SDS011;11034;48.556;9.342;2022-08-20T07:29:48;7.65;;;5.63;;
21743;SDS011;11034;48.556;9.342;2022-08-20T07:32:40;7.03;;;5.30;;
21743;SDS011;11034;48.556;9.342;2022-08-20T07:35:11;8.77;;;5.57;;
21743;SDS011;11034;48.556;9.342;2022-08-20T07:37:41;7.60;;;5.63;;
21743;SDS011;11034;48.556;9.342;2022-08-20T07:40:12;6.45;;;5.72;;
21743;SDS011;11034;48.556;9.342;2022-08-20T07:42:47;6.20;;;5.60;;
21743;SDS011;11034;48.556;9.342;2022-08-20T07:45:17;6.05;;;5.22;;
21743;SDS011;11034;48.556;9.342;2022-08-20T07:47:46;7.07;;;5.18;;
21743;SDS011;11034;48.556;9.342;2022-08-20T07:50:16;8.35;;;5.97;;
21743;SDS011;11034;48.556;9.342;2022-08-20T07:52:45;7.68;;;5.30;;
21743;SDS011;11034;48.556;9.342;2022-08-20T07:55:14;7.80;;;6.88;;
21743;SDS011;11034;48.556;9.342;2022-08-20T07:57:43;8.23;;;5.90;;
21743;SDS011;11034;48.556;9.342;2022-08-20T08:00:12;5.80;;;5.20;;
21743;SDS011;11034;48.556;9.342;2022-08-20T08:02:42;7.10;;;5.22;;
21743;SDS011;11034;48.556;9.342;2022-08-20T08:05:10;6.38;;;5.22;;
21743;SDS011;11034;48.556;9.342;2022-08-20T08:07:39;6.10;;;5.03;;
21743;SDS011;11034;48.556;9.342;2022-08-20T08:10:08;5.82;;;5.05;;
21743;SDS011;11034;48.556;9.342;2022-08-20T08:12:40;7.47;;;5.07;;
21743;SDS011;11034;48.556;9.342;2022-08-20T08:15:13;7.53;;;5.18;;
21743;SDS011;11034;48.556;9.342;2022-08-20T08:17:46;5.60;;;5.07;;
21743;SDS011;11034;48.556;9.342;2022-08-20T08:20:16;5.82;;;4.63;;
21743;SDS011;11034;48.556;9.342;2022-08-20T08:22:44;5.25;;;4.75;;
21743;SDS011;11034;48.556;9.342;2022-08-20T08:25:13;5.70;;;4.43;;
21743;SDS011;11034;48.556;9.342;2022-08-20T08:27:42;4.55;;;4.00;;
21743;SDS011;11034;48.556;9.342;2022-08-20T08:30:14;6.22;;;4.63;;
21743;SDS011;11034;48.556;9.342;2022-08-20T08:32:43;7.03;;;4.95;;
21743;SDS011;11034;48.556;9.342;2022-08-20T08:35:44;6.72;;;4.00;;
21743;SDS011;11034;48.556;9.342;2022-08-20T08:38:13;4.75;;;4.22;;
21743;SDS011;11034;48.556;9.342;2022-08-20T08:40:42;5.38;;;3.95;;
21743;SDS011;11034;48.556;9.342;2022-08-20T08:43:11;4.93;;;4.00;;
21743;SDS011;11034;48.556;9.342;2022-08-20T08:45:49;5.38;;;3.78;;
21743;SDS011;11034;48.556;9.342;2022-08-20T08:48:21;7.25;;;3.92;;
21743;SDS011;11034;48.556;9.342;2022-08-20T08:50:58;4.60;;;3.78;;
21743;SDS011;11034;48.556;9.342;2022-08-20T08:53:30;6.90;;;4.35;;
21743;SDS011;11034;48.556;9.342;2022-08-20T08:56:02;5.28;;;3.80;;
21743;SDS011;11034;48.556;9.342;2022-08-20T08:58:31;5.22;;;3.95;;
21743;SDS011;11034;48.556;9.342;2022-08-20T09:01:01;4.88;;;3.85;;
21743;SDS011;11034;48.556;9.342;2022-08-20T09:03:54;5.03;;;3.67;;
21743;SDS011;11034;48.556;9.342;2022-08-20T09:06:24;4.72;;;3.42;;
21743;SDS011;11034;48.556;9.342;2022-08-20T09:08:55;4.97;;;3.70;;
21743;SDS011;11034;48.556;9.342;2022-08-20T09:11:26;7.18;;;3.60;;
21743;SDS011;11034;48.556;9.342;2022-08-20T09:13:55;4.85;;;3.83;;
21743;SDS011;11034;48.556;9.342;2022-08-20T09:16:24;5.43;;;3.95;;
21743;SDS011;11034;48.556;9.342;2022-08-20T09:19:14;6.20;;;4.28;;
21743;SDS011;11034;48.556;9.342;2022-08-20T09:21:43;4.25;;;3.85;;
21743;SDS011;11034;48.556;9.342;2022-08-20T09:24:11;7.53;;;4.55;;
21743;SDS011;11034;48.556;9.342;2022-08-20T09:26:40;4.43;;;3.85;;
21743;SDS011;11034;48.556;9.342;2022-08-20T09:29:08;6.72;;;3.97;;
21743;SDS011;11034;48.556;9.342;2022-08-20T09:31:36;4.82;;;4.28;;
21743;SDS011;11034;48.556;9.342;2022-08-20T09:34:04;4.22;;;3.83;;
21743;SDS011;11034;48.556;9.342;2022-08-20T09:36:33;4.18;;;3.78;;
21743;SDS011;11034;48.556;9.342;2022-08-20T09:39:02;4.63;;;4.07;;
21743;SDS011;11034;48.556;9.342;2022-08-20T09:41:31;4.80;;;3.90;;
21743;SDS011;11034;48.556;9.342;2022-08-20T09:44:00;5.03;;;3.95;;
21743;SDS011;11034;48.556;9.342;2022-08-20T09:46:28;5.65;;;3.90;;
21743;SDS011;11034;48.556;9.342;2022-08-20T09:48:56;5.53;;;4.25;;
21743;SDS011;11034;48.556;9.342;2022-08-20T09:51:24;7.32;;;4.68;;
21743;SDS011;11034;48.556;9.342;2022-08-20T09:53:53;4.60;;;4.20;;
21743;SDS011;11034;48.556;9.342;2022-08-20T09:56:23;5.45;;;4.80;;
21743;SDS011;11034;48.556;9.342;2022-08-20T09:58:53;5.38;;;4.63;;
21743;SDS011;11034;48.556;9.342;2022-08-20T10:01:27;6.00;;;4.95;;
21743;SDS011;11034;48.556;9.342;2022-08-20T10:03:56;5.57;;;4.57;;
21743;SDS011;11034;48.556;9.342;2022-08-20T10:06:24;5.07;;;4.15;;
21743;SDS011;11034;48.556;9.342;2022-08-20T10:08:52;4.68;;;4.05;;
21743;SDS011;11034;48.556;9.342;2022-08-20T10:11:20;5.10;;;3.80;;
21743;SDS011;11034;48.556;9.342;2022-08-20T10:13:51;4.85;;;3.67;;
21743;SDS011;11034;48.556;9.342;2022-08-20T10:16:19;5.35;;;3.72;;
21743;SDS011;11034;48.556;9.342;2022-08-20T10:18:47;4.95;;;3.85;;
21743;SDS011;11034;48.556;9.342;2022-08-20T10:21:16;6.82;;;4.50;;
21743;SDS011;11034;48.556;9.342;2022-08-20T10:23:44;4.13;;;3.67;;
21743;SDS011;11034;48.556;9.342;2022-08-20T10:26:15;4.85;;;3.90;;
21743;SDS011;11034;48.556;9.342;2022-08-20T10:28:43;4.47;;;3.88;;
21743;SDS011;11034;48.556;9.342;2022-08-20T10:31:14;7.53;;;3.95;;
21743;SDS011;11034;48.556;9.342;2022-08-20T10:33:42;4.53;;;3.97;;
21743;SDS011;11034;48.556;9.342;2022-08-20T10:36:12;4.63;;;3.58;;
21743;SDS011;11034;48.556;9.342;2022-08-20T10:38:41;4.25;;;3.00;;
21743;SDS011;11034;48.556;9.342;2022-08-20T10:41:10;3.88;;;3.22;;
21743;SDS011;11034;48.556;9.342;2022-08-20T10:43:39;5.18;;;3.65;;
21743;SDS011;11034;48.556;9.342;2022-08-20T10:46:07;8.40;;;3.35;;
21743;SDS011;11034;48.556;9.342;2022-08-20T10:48:36;14.75;;;4.50;;
21743;SDS011;11034;48.556;9.342;2022-08-20T10:51:05;9.35;;;4.18;;
21743;SDS011;11034;48.556;9.342;2022-08-20T10:53:33;13.10;;;4.22;;
21743;SDS011;11034;48.556;9.342;2022-08-20T10:56:02;9.55;;;3.95;;
21743;SDS011;11034;48.556;9.342;2022-08-20T10:58:30;9.32;;;4.43;;
21743;SDS011;11034;48.556;9.342;2022-08-20T11:01:03;6.68;;;4.72;;
21743;SDS011;11034;48.556;9.342;2022-08-20T11:03:31;6.80;;;5.00;;
21743;SDS011;11034;48.556;9.342;2022-08-20T11:06:01;4.95;;;4.47;;
21743;SDS011;11034;48.556;9.342;2022-08-20T11:08:30;8.57;;;5.15;;
21743;SDS011;11034;48.556;9.342;2022-08-20T11:11:01;9.15;;;4.30;;
21743;SDS011;11034;48.556;9.342;2022-08-20T11:13:29;5.03;;;3.53;;
21743;SDS011;11034;48.556;9.342;2022-08-20T11:15:59;7.15;;;4.50;;
21743;SDS011;11034;48.556;9.342;2022-08-20T11:18:27;9.70;;;4.90;;
21743;SDS011;11034;48.556;9.342;2022-08-20T11:20:56;6.35;;;4.97;;
21743;SDS011;11034;48.556;9.342;2022-08-20T11:23:26;6.63;;;4.35;;
21743;SDS011;11034;48.556;9.342;2022-08-20T11:25:55;19.17;;;5.53;;
21743;SDS011;11034;48.556;9.342;2022-08-20T11:28:23;11.30;;;5.97;;
21743;SDS011;11034;48.556;9.342;2022-08-20T11:30:57;7.32;;;4.28;;
21743;SDS011;11034;48.556;9.342;2022-08-20T11:33:25;7.63;;;3.00;;
21743;SDS011;11034;48.556;9.342;2022-08-20T11:35:54;6.60;;;2.63;;
21743;SDS011;11034;48.556;9.342;2022-08-20T11:38:24;4.55;;;3.35;;
21743;SDS011;11034;48.556;9.342;2022-08-20T11:40:53;4.68;;;2.78;;
21743;SDS011;11034;48.556;9.342;2022-08-20T11:43:21;4.00;;;3.35;;
21743;SDS011;11034;48.556;9.342;2022-08-20T11:45:51;6.65;;;3.90;;
21743;SDS011;11034;48.556;9.342;2022-08-20T11:48:22;5.30;;;3.97;;
21743;SDS011;11034;48.556;9.342;2022-08-20T11:50:50;6.45;;;4.43;;
21743;SDS011;11034;48.556;9.342;2022-08-20T11:53:18;6.65;;;4.25;;
21743;SDS011;11034;48.556;9.342;2022-08-20T11:55:49;6.32;;;4.43;;
21743;SDS011;11034;48.556;9.342;2022-08-20T11:58:18;4.95;;;4.20;;
21743;SDS011;11034;48.556;9.342;2022-08-20T12:00:46;4.43;;;3.90;;
21743;SDS011;11034;48.556;9.342;2022-08-20T12:03:14;5.90;;;3.65;;
21743;SDS011;11034;48.556;9.342;2022-08-20T12:05:44;4.00;;;3.20;;
21743;SDS011;11034;48.556;9.342;2022-08-20T12:08:14;3.78;;;3.47;;
21743;SDS011;11034;48.556;9.342;2022-08-20T12:10:54;3.53;;;3.22;;
21743;SDS011;11034;48.556;9.342;2022-08-20T12:13:23;4.55;;;3.35;;
21743;SDS011;11034;48.556;9.342;2022-08-20T12:16:11;3.50;;;3.00;;
21743;SDS011;11034;48.556;9.342;2022-08-20T12:18:39;3.75;;;3.10;;
21743;SDS011;11034;48.556;9.342;2022-08-20T12:21:08;3.50;;;2.97;;
21743;SDS011;11034;48.556;9.342;2022-08-20T12:23:36;7.35;;;4.50;;
21743;SDS011;11034;48.556;9.342;2022-08-20T12:26:06;2.92;;;2.60;;
21743;SDS011;11034;48.556;9.342;2022-08-20T12:28:34;2.72;;;2.10;;
21743;SDS011;11034;48.556;9.342;2022-08-20T12:31:02;1.90;;;1.80;;
21743;SDS011;11034;48.556;9.342;2022-08-20T12:33:30;5.13;;;2.65;;
21743;SDS011;11034;48.556;9.342;2022-08-20T12:35:58;2.30;;;2.10;;
21743;SDS011;11034;48.556;9.342;2022-08-20T12:38:27;2.25;;;1.98;;
21743;SDS011;11034;48.556;9.342;2022-08-20T12:40:55;2.22;;;2.03;;
21743;SDS011;11034;48.556;9.342;2022-08-20T12:43:24;1.98;;;1.73;;
21743;SDS011;11034;48.556;9.342;2022-08-20T12:45:52;3.65;;;1.85;;
21743;SDS011;11034;48.556;9.342;2022-08-20T12:48:21;2.10;;;1.90;;
21743;SDS011;11034;48.556;9.342;2022-08-20T12:50:49;1.55;;;1.33;;
21743;SDS011;11034;48.556;9.342;2022-08-20T12:53:18;2.28;;;1.95;;
21743;SDS011;11034;48.556;9.342;2022-08-20T12:55:46;2.25;;;1.83;;
21743;SDS011;11034;48.556;9.342;2022-08-20T12:58:14;1.50;;;1.40;;
21743;SDS011;11034;48.556;9.342;2022-08-20T13:00:46;1.40;;;1.30;;
21743;SDS011;11034;48.556;9.342;2022-08-20T13:03:16;1.48;;;1.38;;
21743;SDS011;11034;48.556;9.342;2022-08-20T13:05:45;2.25;;;1.40;;
21743;SDS011;11034;48.556;9.342;2022-08-20T13:08:14;1.50;;;1.40;;
21743;SDS011;11034;48.556;9.342;2022-08-20T13:10:43;2.42;;;1.70;;
21743;SDS011;11034;48.556;9.342;2022-08-20T13:13:11;2.13;;;1.48;;
21743;SDS011;11034;48.556;9.342;2022-08-20T13:15:48;1.70;;;1.60;;
21743;SDS011;11034;48.556;9.342;2022-08-20T13:18:17;2.00;;;1.90;;
21743;SDS011;11034;48.556;9.342;2022-08-20T13:20:46;2.83;;;2.20;;
21743;SDS011;11034;48.556;9.342;2022-08-20T13:23:14;3.22;;;2.38;;
21743;SDS011;11034;48.556;9.342;2022-08-20T13:25:43;3.00;;;2.35;;
21743;SDS011;11034;48.556;9.342;2022-08-20T13:28:11;3.60;;;2.72;;
21743;SDS011;11034;48.556;9.342;2022-08-20T13:30:39;3.17;;;2.58;;
21743;SDS011;11034;48.556;9.342;2022-08-20T13:33:09;3.53;;;2.38;;
21743;SDS011;11034;48.556;9.342;2022-08-20T13:35:37;2.97;;;2.20;;
21743;SDS011;11034;48.556;9.342;2022-08-20T13:38:06;1.98;;;1.70;;
21743;SDS011;11034;48.556;9.342;2022-08-20T13:40:34;1.83;;;1.65;;
21743;SDS011;11034;48.556;9.342;2022-08-20T13:43:02;2.63;;;1.60;;
21743;SDS011;11034;48.556;9.342;2022-08-20T13:45:37;3.17;;;1.63;;
21743;SDS011;11034;48.556;9.342;2022-08-20T13:48:06;2.30;;;2.10;;
21743;SDS011;11034;48.556;9.342;2022-08-20T13:50:42;4.80;;;2.95;;
21743;SDS011;11034;48.556;9.342;2022-08-20T13:53:12;3.35;;;2.10;;
21743;SDS011;11034;48.556;9.342;2022-08-20T13:55:41;4.78;;;3.80;;
21743;SDS011;11034;48.556;9.342;2022-08-20T13:58:11;3.70;;;2.67;;
21743;SDS011;11034;48.556;9.342;2022-08-20T14:00:39;2.08;;;1.77;;
21743;SDS011;11034;48.556;9.342;2022-08-20T14:03:07;1.45;;;1.35;;
21743;SDS011;11034;48.556;9.342;2022-08-20T14:05:35;2.33;;;1.67;;
21743;SDS011;11034;48.556;9.342;2022-08-20T14:08:07;1.90;;;1.63;;
21743;SDS011;11034;48.556;9.342;2022-08-20T14:10:37;2.90;;;1.70;;
21743;SDS011;11034;48.556;9.342;2022-08-20T14:13:08;1.48;;;1.35;;
21743;SDS011;11034;48.556;9.342;2022-08-20T14:15:41;1.80;;;1.58;;
21743;SDS011;11034;48.556;9.342;2022-08-20T14:18:10;1.35;;;1.25;;
21743;SDS011;11034;48.556;9.342;2022-08-20T14:20:40;1.77;;;1.10;;
21743;SDS011;11034;48.556;9.342;2022-08-20T14:23:12;2.08;;;1.20;;
21743;SDS011;11034;48.556;9.342;2022-08-20T14:25:41;1.30;;;1.20;;
21743;SDS011;11034;48.556;9.342;2022-08-20T14:28:13;1.40;;;1.20;;
21743;SDS011;11034;48.556;9.342;2022-08-20T14:30:45;1.48;;;1.10;;
21743;SDS011;11034;48.556;9.342;2022-08-20T14:33:18;1.27;;;1.15;;
21743;SDS011;11034;48.556;9.342;2022-08-20T14:35:47;1.30;;;1.20;;
21743;SDS011;11034;48.556;9.342;2022-08-20T14:38:18;1.75;;;1.52;;
21743;SDS011;11034;48.556;9.342;2022-08-20T14:40:47;1.60;;;1.50;;
21743;SDS011;11034;48.556;9.342;2022-08-20T14:43:16;1.52;;;1.20;;
21743;SDS011;11034;48.556;9.342;2022-08-20T14:45:44;2.42;;;1.50;;
21743;SDS011;11034;48.556;9.342;2022-08-20T14:48:12;1.58;;;1.10;;
21743;SDS011;11034;48.556;9.342;2022-08-20T14:50:41;1.35;;;1.23;;
21743;SDS011;11034;48.556;9.342;2022-08-20T14:53:09;1.30;;;1.20;;
21743;SDS011;11034;48.556;9.342;2022-08-20T14:55:38;2.15;;;1.25;;
21743;SDS011;11034;48.556;9.342;2022-08-20T14:58:07;2.90;;;1.40;;
21743;SDS011;11034;48.556;9.342;2022-08-20T15:00:36;2.38;;;1.17;;
21743;SDS011;11034;48.556;9.342;2022-08-20T15:03:06;1.33;;;1.20;;
21743;SDS011;11034;48.556;9.342;2022-08-20T15:05:34;2.63;;;2.08;;
21743;SDS011;11034;48.556;9.342;2022-08-20T15:08:05;1.33;;;1.23;;